Terminal Aerodrome Forecast
Issued by NWS

Home | Current Version | Previous Version | Text Only | Print | Product List | Glossary On
Versions: 1 2 3 4 5 6 7 8 9 10 11 12 13
000
FTUS42 KMLB 252300 RRA
TAFFPR
TAF
KFPR 252342Z 2600/2624 17004KT P6SM VCSH BKN060 BKN080 OVC110
     FM260200 18003KT P6SM FEW040 BKN250
     FM261300 20005KT P6SM SCT020 SCT250
     FM261700 11008KT P6SM VCSH SCT035 SCT080=

USA.gov is the U.S. government's official web portal to all federal, state and local government web resources and services.